Time;durP1;ratioP1;P1;durP2;ratioP2;P2;SDS_P1;SDS_P2;PMS_P1;PMS_P2;Temp;Humidity;BMP_temperature;BMP_pressure;BME280_temperature;BME280_humidity;BME280_pressure;Samples;Min_cycle;Max_cycle;Signal;HPM_P1;HPM_P2
2022/01/20 00:01:08;;;;;;;18.80;11.30;;;;;;;1.03;100.00;98775.51;104954;1271;62371;-74
2022/01/20 00:03:37;;;;;;;15.40;11.80;;;;;;;1.08;100.00;98764.84;105931;1271;76220;-72
2022/01/20 00:08:55;;;;;;;15.50;10.80;;;;;;;1.12;100.00;98762.80;106161;1271;73415;-72
2022/01/20 00:28:02;;;;;;;14.80;11.10;;;;;;;1.22;99.97;98754.24;105227;1271;62021;-72
2022/01/20 00:30:46;;;;;;;18.00;11.60;;;;;;;1.23;100.00;98750.69;105199;1271;75005;-71
2022/01/20 00:33:19;;;;;;;15.40;10.20;;;;;;;1.24;99.97;98748.23;105242;1271;69364;-72
2022/01/20 00:38:23;;;;;;;17.20;11.50;;;;;;;1.28;99.82;98754.20;105000;1271;62121;-71
2022/01/20 00:40:51;;;;;;;15.50;10.90;;;;;;;1.30;99.68;98754.84;105273;1271;62358;-73
2022/01/20 00:43:18;;;;;;;16.70;12.90;;;;;;;1.32;99.93;98757.08;105337;1271;76029;-72
2022/01/20 00:45:47;;;;;;;14.80;11.90;;;;;;;1.31;99.88;98754.44;104964;1271;68896;-74
2022/01/20 00:48:13;;;;;;;12.60;10.10;;;;;;;1.31;99.90;98749.72;105446;1271;73468;-74
2022/01/20 00:50:40;;;;;;;13.90;10.50;;;;;;;1.32;99.87;98746.73;105165;1271;62166;-74
2022/01/20 00:53:06;;;;;;;15.30;10.90;;;;;;;1.34;99.77;98740.92;105210;1271;61925;-72
2022/01/20 00:55:33;;;;;;;12.10;9.80;;;;;;;1.37;99.71;98743.27;105192;1270;76940;-72
2022/01/20 00:58:00;;;;;;;11.40;9.30;;;;;;;1.39;99.92;98738.80;105032;1271;70379;-72
2022/01/20 01:00:27;;;;;;;14.70;10.70;;;;;;;1.39;99.77;98737.05;105170;1271;74046;-72
2022/01/20 01:02:53;;;;;;;13.60;10.00;;;;;;;1.41;99.69;98736.83;105111;1271;62149;-72
2022/01/20 01:05:20;;;;;;;14.40;10.30;;;;;;;1.43;99.72;98737.27;105217;1271;62132;-73
2022/01/20 01:07:48;;;;;;;14.10;10.60;;;;;;;1.45;99.78;98734.56;105158;1271;75210;-72
2022/01/20 01:10:28;;;;;;;14.70;10.80;;;;;;;1.45;99.88;98734.05;104906;1271;410060;-72
2022/01/20 01:13:07;;;;;;;12.20;9.50;;;;;;;1.45;99.98;98732.11;105195;1271;73172;-72
2022/01/20 01:15:40;;;;;;;12.70;10.40;;;;;;;1.44;100.00;98726.35;105226;1268;61944;-75
2022/01/20 01:23:34;;;;;;;13.70;10.50;;;;;;;1.41;100.00;98703.54;105158;1271;70313;-74
2022/01/20 01:26:03;;;;;;;13.50;10.90;;;;;;;1.40;100.00;98690.98;105157;1271;73641;-75
2022/01/20 01:28:31;;;;;;;13.60;10.40;;;;;;;1.39;100.00;98677.52;105171;1271;61965;-76
2022/01/20 01:33:56;;;;;;;14.40;10.30;;;;;;;1.37;100.00;98663.95;105222;1271;76867;-74
2022/01/20 01:36:24;;;;;;;13.20;10.30;;;;;;;1.37;100.00;98650.66;105370;1271;69039;-73
2022/01/20 01:38:51;;;;;;;12.10;9.90;;;;;;;1.39;100.00;98646.57;105221;1271;73138;-73
2022/01/20 01:41:28;;;;;;;13.50;10.60;;;;;;;1.41;100.00;98648.05;104953;1271;62197;-73
2022/01/20 01:43:56;;;;;;;14.60;10.80;;;;;;;1.43;100.00;98638.73;105200;1271;62158;-72
2022/01/20 01:46:23;;;;;;;14.10;10.50;;;;;;;1.44;100.00;98634.64;105224;1271;76023;-73
2022/01/20 01:48:50;;;;;;;15.90;11.40;;;;;;;1.46;100.00;98630.89;105203;1271;68609;-75
2022/01/20 01:51:16;;;;;;;12.10;10.00;;;;;;;1.46;100.00;98627.05;105210;1271;73367;-74
2022/01/20 01:53:43;;;;;;;12.80;9.60;;;;;;;1.48;100.00;98616.12;105166;1271;62135;-74
2022/01/20 01:56:10;;;;;;;13.20;9.60;;;;;;;1.52;100.00;98616.50;105168;1271;62212;-73
2022/01/20 01:58:37;;;;;;;11.20;9.60;;;;;;;1.56;100.00;98629.86;105360;1271;76535;-75
2022/01/20 02:01:04;;;;;;;15.40;9.10;;;;;;;1.59;100.00;98623.79;104956;1271;69429;-75
2022/01/20 02:03:33;;;;;;;13.30;10.40;;;;;;;1.62;100.00;98612.62;105187;1271;73338;-74
2022/01/20 02:06:24;;;;;;;12.60;9.20;;;;;;;1.65;100.00;98610.63;105157;1271;62091;-74
2022/01/20 02:19:32;;;;;;;11.10;8.50;;;;;;;1.77;99.15;98591.59;105018;1270;62197;-77
2022/01/20 02:22:02;;;;;;;9.50;7.60;;;;;;;1.80;99.08;98598.52;104921;1271;62092;-76
2022/01/20 02:24:30;;;;;;;11.00;7.90;;;;;;;1.83;98.75;98590.49;105232;1271;76138;-75
2022/01/20 02:26:57;;;;;;;9.20;7.90;;;;;;;1.84;98.61;98583.09;105226;1271;69913;-76
2022/01/20 02:29:24;;;;;;;9.70;7.10;;;;;;;1.86;98.10;98585.29;105214;1271;75094;-76
2022/01/20 02:32:00;;;;;;;9.80;7.50;;;;;;;1.88;98.27;98581.20;105266;1271;62233;-75
2022/01/20 02:34:30;;;;;;;12.00;7.50;;;;;;;1.89;98.20;98584.66;105266;1271;61931;-77
2022/01/20 02:37:00;;;;;;;10.20;7.50;;;;;;;1.90;97.74;98586.19;105340;1271;77306;-74
2022/01/20 02:45:03;;;;;;;9.60;7.10;;;;;;;1.95;97.46;98577.42;105246;1270;62207;-75
2022/01/20 02:47:32;;;;;;;11.00;7.30;;;;;;;1.96;97.49;98578.08;105256;1271;62144;-75
2022/01/20 02:49:59;;;;;;;9.30;7.20;;;;;;;1.95;97.70;98582.84;105211;1271;76442;-75
2022/01/20 02:52:27;;;;;;;10.30;7.50;;;;;;;1.95;97.56;98584.77;105205;1271;67297;-77
2022/01/20 02:54:55;;;;;;;9.50;7.50;;;;;;;1.94;98.01;98589.70;105316;1271;73411;-75
2022/01/20 02:57:22;;;;;;;9.30;6.90;;;;;;;1.91;98.65;98586.16;105238;1271;62383;-75
2022/01/20 02:59:48;;;;;;;10.90;8.20;;;;;;;1.87;98.83;98575.44;105244;1270;61931;-75
2022/01/20 03:02:15;;;;;;;8.70;7.80;;;;;;;1.85;98.70;98568.00;105180;1271;76246;-76
2022/01/20 03:04:42;;;;;;;8.40;7.40;;;;;;;1.85;98.67;98567.64;105200;1270;69390;-74
2022/01/20 03:07:09;;;;;;;9.20;7.50;;;;;;;1.85;98.71;98566.23;105187;1271;74176;-75
2022/01/20 03:09:35;;;;;;;10.70;7.90;;;;;;;1.85;98.46;98561.36;104934;1271;61992;-74
2022/01/20 03:12:03;;;;;;;10.50;7.90;;;;;;;1.86;98.59;98558.66;105259;1270;62074;-74
2022/01/20 03:14:29;;;;;;;8.60;7.50;;;;;;;1.87;98.68;98555.48;104952;1271;76015;-75
2022/01/20 03:16:57;;;;;;;10.70;8.40;;;;;;;1.87;98.77;98562.66;105152;1271;62060;-74
2022/01/20 03:19:23;;;;;;;12.40;8.20;;;;;;;1.85;98.73;98559.94;105238;1271;71378;-74
2022/01/20 03:21:50;;;;;;;9.10;7.50;;;;;;;1.86;98.59;98555.69;105169;1271;62066;-75
2022/01/20 03:24:16;;;;;;;10.00;7.80;;;;;;;1.86;98.70;98546.04;105003;1271;62135;-73
2022/01/20 03:26:43;;;;;;;11.40;8.20;;;;;;;1.86;98.70;98546.22;105302;1271;62075;-75
2022/01/20 03:29:10;;;;;;;10.70;7.40;;;;;;;1.86;98.58;98542.55;105274;1271;70384;-74
2022/01/20 03:31:38;;;;;;;11.50;7.90;;;;;;;1.86;98.61;98540.44;105194;1271;73138;-74
2022/01/20 03:34:04;;;;;;;10.80;8.70;;;;;;;1.87;98.50;98537.95;105277;1271;62169;-74
2022/01/20 03:36:32;;;;;;;10.40;8.10;;;;;;;1.88;98.52;98540.03;105244;1271;62101;-75
2022/01/20 03:38:59;;;;;;;9.70;7.90;;;;;;;1.88;98.54;98535.09;104977;1271;76061;-75
2022/01/20 03:41:26;;;;;;;8.80;7.90;;;;;;;1.89;98.59;98534.21;105207;1271;68747;-75
2022/01/20 03:43:53;;;;;;;11.10;8.20;;;;;;;1.89;98.60;98525.10;105295;1271;73790;-73
2022/01/20 03:46:20;;;;;;;10.90;7.80;;;;;;;1.89;98.75;98519.84;105312;1271;62212;-75
2022/01/20 03:48:51;;;;;;;10.70;7.30;;;;;;;1.88;98.77;98511.46;105279;1271;62167;-74
2022/01/20 03:51:22;;;;;;;9.60;7.10;;;;;;;1.88;98.83;98518.30;105143;1271;76136;-76
2022/01/20 03:53:49;;;;;;;;;;;;;;;1.87;98.99;98515.17;105263;1270;70283;-74
2022/01/20 03:56:17;;;;;;;10.30;7.60;;;;;;;1.85;99.22;98512.13;105260;1271;72836;-71
2022/01/20 03:58:44;;;;;;;12.20;8.50;;;;;;;1.83;99.27;98510.44;105499;1271;61988;-74
2022/01/20 04:01:12;;;;;;;11.60;8.60;;;;;;;1.84;99.42;98508.48;105276;1271;62088;-74
2022/01/20 04:03:39;;;;;;;11.10;8.60;;;;;;;1.83;99.35;98505.73;105256;1271;76951;-73
2022/01/20 04:06:06;;;;;;;12.60;8.70;;;;;;;1.83;99.60;98511.86;105231;1271;68127;-75
2022/01/20 04:08:39;;;;;;;12.90;8.40;;;;;;;1.80;99.96;98498.98;105296;1270;74409;-73
2022/01/20 04:11:11;;;;;;;10.00;7.70;;;;;;;1.78;100.00;98492.09;105213;1270;62065;-73
2022/01/20 04:13:39;;;;;;;9.90;7.90;;;;;;;1.74;100.00;98497.13;105325;1271;62015;-75
2022/01/20 04:16:18;;;;;;;10.30;8.60;;;;;;;1.69;100.00;98492.06;105055;1271;75038;-74
2022/01/20 04:18:53;;;;;;;9.90;8.30;;;;;;;1.65;100.00;98487.70;105203;1271;70095;-73
2022/01/20 04:21:23;;;;;;;11.60;8.70;;;;;;;1.62;100.00;98496.21;105182;1271;73424;-74
2022/01/20 04:23:50;;;;;;;9.70;8.60;;;;;;;1.61;100.00;98498.71;105268;1270;62143;-74
2022/01/20 04:26:18;;;;;;;11.60;8.50;;;;;;;1.60;100.00;98492.25;104976;1271;62163;-73
2022/01/20 04:28:45;;;;;;;11.70;9.10;;;;;;;1.59;100.00;98484.75;105235;1271;75563;-74
2022/01/20 04:31:12;;;;;;;12.20;9.00;;;;;;;1.58;100.00;98484.09;105244;1271;69193;-75
2022/01/20 04:33:39;;;;;;;9.80;8.50;;;;;;;1.57;100.00;98482.23;105170;1271;74343;-74
2022/01/20 04:36:06;;;;;;;8.70;7.40;;;;;;;1.56;100.00;98480.02;105186;1271;62135;-74
2022/01/20 04:38:33;;;;;;;10.80;8.00;;;;;;;1.55;100.00;98480.54;105178;1271;62156;-75
2022/01/20 04:41:00;;;;;;;10.80;7.60;;;;;;;1.56;100.00;98475.95;105197;1271;76928;-73
2022/01/20 04:43:27;;;;;;;8.70;7.80;;;;;;;1.57;100.00;98470.83;104908;1271;67881;-73
2022/01/20 04:46:05;;;;;;;12.00;9.10;;;;;;;1.58;100.00;98467.13;105184;1271;73431;-72
2022/01/20 04:48:59;;;;;;;10.90;8.50;;;;;;;1.58;100.00;98466.09;105169;1271;62179;-73
2022/01/20 04:57:18;;;;;;;9.10;8.00;;;;;;;1.57;100.00;98451.59;105182;1271;69733;-72
2022/01/20 04:59:46;;;;;;;10.70;8.50;;;;;;;1.58;100.00;98451.90;105264;1271;73303;-73
2022/01/20 05:02:13;;;;;;;10.10;8.20;;;;;;;1.57;100.00;98445.29;105219;1271;62161;-74
2022/01/20 05:04:40;;;;;;;9.80;7.50;;;;;;;1.60;100.00;98451.66;105234;1271;62101;-71
2022/01/20 05:07:10;;;;;;;11.10;8.20;;;;;;;1.61;100.00;98451.58;105215;1271;75973;-72
2022/01/20 05:09:37;;;;;;;10.30;7.60;;;;;;;1.64;100.00;98440.78;105303;1271;69214;-72
2022/01/20 05:12:08;;;;;;;11.90;7.30;;;;;;;1.68;100.00;98436.43;105214;1270;74206;-72
2022/01/20 05:14:35;;;;;;;13.10;8.50;;;;;;;1.69;100.00;98433.40;105154;1271;62124;-72
2022/01/20 05:17:02;;;;;;;11.40;8.00;;;;;;;1.73;100.00;98435.55;104466;1271;1003857;-72
2022/01/20 05:19:31;;;;;;;9.40;7.70;;;;;;;1.75;100.00;98430.18;105201;1271;76214;-72
2022/01/20 05:21:58;;;;;;;8.30;7.10;;;;;;;1.79;100.00;98426.90;105121;1271;69289;-74
2022/01/20 05:24:26;;;;;;;11.20;8.60;;;;;;;1.83;100.00;98416.21;105136;1271;73321;-74
2022/01/20 05:26:54;;;;;;;8.40;7.00;;;;;;;1.87;100.00;98409.92;105405;1271;62074;-73
2022/01/20 05:29:22;;;;;;;9.00;7.40;;;;;;;1.90;100.00;98422.41;105987;1271;62107;-74
2022/01/20 05:31:50;;;;;;;9.80;6.50;;;;;;;1.91;100.00;98416.39;105748;1271;76112;-73
2022/01/20 05:34:17;;;;;;;9.60;6.60;;;;;;;1.91;100.00;98420.77;105113;1271;68288;-71
2022/01/20 05:36:46;;;;;;;9.30;6.90;;;;;;;1.91;100.00;98422.73;105208;1271;72734;-72
2022/01/20 05:39:14;;;;;;;11.10;7.30;;;;;;;1.91;100.00;98424.98;105271;1271;62673;-73
2022/01/20 05:41:42;;;;;;;8.80;7.40;;;;;;;1.92;100.00;98419.01;105240;1271;62479;-72
2022/01/20 05:44:09;;;;;;;8.70;7.40;;;;;;;1.92;100.00;98420.90;105293;1271;76512;-72
2022/01/20 05:46:41;;;;;;;11.10;7.70;;;;;;;1.93;100.00;98421.75;105219;1271;69173;-72
2022/01/20 05:49:10;;;;;;;10.80;7.60;;;;;;;1.96;100.00;98422.69;104946;1271;73315;-75
2022/01/20 05:51:41;;;;;;;9.00;7.30;;;;;;;1.97;100.00;98428.92;105186;1271;62223;-74
2022/01/20 05:54:08;;;;;;;10.30;8.30;;;;;;;1.99;100.00;98424.85;105238;1271;62022;-72
2022/01/20 05:56:35;;;;;;;9.60;7.00;;;;;;;2.01;100.00;98422.98;104979;1271;76857;-73
2022/01/20 05:59:03;;;;;;;8.00;6.90;;;;;;;2.02;100.00;98425.40;105197;1271;69581;-74
2022/01/20 06:01:32;;;;;;;11.80;6.90;;;;;;;2.01;100.00;98430.70;105398;1270;73265;-73
2022/01/20 06:03:59;;;;;;;8.90;6.30;;;;;;;2.02;100.00;98434.70;105187;1271;62094;-72
2022/01/20 06:06:26;;;;;;;8.10;6.70;;;;;;;2.01;100.00;98433.70;105222;1271;62146;-72
2022/01/20 06:08:52;;;;;;;9.20;7.40;;;;;;;2.01;100.00;98427.38;104921;1271;74845;-73
2022/01/20 06:11:19;;;;;;;6.90;6.10;;;;;;;2.02;100.00;98426.28;105181;1271;69413;-74
2022/01/20 06:13:46;;;;;;;9.10;7.20;;;;;;;2.03;100.00;98431.16;105204;1271;73323;-72
2022/01/20 06:16:12;;;;;;;10.70;8.10;;;;;;;2.03;100.00;98429.23;105217;1271;62073;-72
2022/01/20 06:18:39;;;;;;;11.30;7.60;;;;;;;2.02;100.00;98427.86;105218;1271;61997;-72
2022/01/20 06:21:05;;;;;;;9.40;7.60;;;;;;;2.01;100.00;98427.04;104913;1271;75173;-72
2022/01/20 06:23:33;;;;;;;7.70;6.90;;;;;;;2.01;100.00;98425.28;105238;1271;70423;-72
2022/01/20 06:26:04;;;;;;;8.50;7.00;;;;;;;2.01;100.00;98419.88;105267;1271;74283;-72
2022/01/20 06:28:34;;;;;;;9.00;6.80;;;;;;;2.01;100.00;98424.06;105228;1271;62102;-73
2022/01/20 06:31:00;;;;;;;8.80;7.30;;;;;;;2.03;100.00;98421.71;105277;1271;62049;-72
2022/01/20 06:33:27;;;;;;;8.00;7.10;;;;;;;2.04;100.00;98416.21;104996;1271;75411;-71
2022/01/20 06:35:54;;;;;;;7.90;6.50;;;;;;;2.06;100.00;98414.56;105134;1271;69953;-71
2022/01/20 06:38:21;;;;;;;10.20;7.80;;;;;;;2.07;100.00;98412.23;105210;1271;73122;-72
2022/01/20 06:40:49;;;;;;;9.30;7.20;;;;;;;2.08;100.00;98406.24;105229;1270;62164;-73
2022/01/20 06:43:15;;;;;;;9.60;7.40;;;;;;;2.07;100.00;98402.59;105147;1271;62596;-72
2022/01/20 06:45:43;;;;;;;7.30;6.40;;;;;;;2.07;100.00;98400.68;105010;1271;74510;-73
2022/01/20 06:48:09;;;;;;;8.80;6.40;;;;;;;2.07;100.00;98386.81;105228;1271;68727;-74
2022/01/20 06:50:36;;;;;;;7.80;6.90;;;;;;;2.08;100.00;98387.84;105120;1271;73119;-73
2022/01/20 06:53:02;;;;;;;8.40;6.50;;;;;;;2.08;100.00;98391.52;105198;1271;62126;-72
2022/01/20 06:55:29;;;;;;;7.60;5.90;;;;;;;2.08;100.00;98388.38;105209;1271;61982;-72
2022/01/20 06:57:57;;;;;;;9.20;7.00;;;;;;;2.09;100.00;98385.70;105237;1271;76009;-74
2022/01/20 07:00:24;;;;;;;8.00;6.60;;;;;;;2.11;100.00;98382.27;105209;1271;69528;-72
2022/01/20 07:02:52;;;;;;;8.40;6.90;;;;;;;2.13;100.00;98378.70;105339;1271;73470;-75
2022/01/20 07:05:21;;;;;;;9.40;7.60;;;;;;;2.16;100.00;98383.67;105253;1271;62110;-72
2022/01/20 07:07:48;;;;;;;8.90;7.70;;;;;;;2.16;100.00;98380.86;105257;1271;62427;-73
2022/01/20 07:10:19;;;;;;;11.00;8.60;;;;;;;2.18;100.00;98384.25;104936;1271;77058;-72
2022/01/20 07:12:47;;;;;;;9.50;7.50;;;;;;;2.21;100.00;98376.60;105240;1271;69200;-73
2022/01/20 07:15:15;;;;;;;9.80;7.70;;;;;;;2.24;100.00;98371.73;105347;1271;73326;-73
2022/01/20 07:17:42;;;;;;;8.90;7.30;;;;;;;2.26;100.00;98374.45;105222;1271;62206;-73
2022/01/20 07:20:09;;;;;;;11.90;8.00;;;;;;;2.29;100.00;98387.85;105238;1271;62107;-72
2022/01/20 07:22:36;;;;;;;10.10;8.10;;;;;;;2.31;100.00;98380.73;105053;1271;76869;-73
2022/01/20 07:25:04;;;;;;;8.60;6.20;;;;;;;2.34;100.00;98382.34;105218;1271;69358;-72
2022/01/20 07:27:31;;;;;;;11.10;8.00;;;;;;;2.39;100.00;98378.98;105206;1271;74264;-72
2022/01/20 07:29:57;;;;;;;9.80;8.30;;;;;;;2.43;100.00;98375.31;105186;1271;62129;-72
2022/01/20 07:32:24;;;;;;;11.80;8.00;;;;;;;2.47;100.00;98375.84;105233;1271;62164;-71
2022/01/20 07:34:50;;;;;;;11.60;8.10;;;;;;;2.50;100.00;98390.59;104926;1271;77055;-70
2022/01/20 07:37:17;;;;;;;10.10;7.80;;;;;;;2.49;100.00;98390.45;105212;1271;62073;-72
2022/01/20 07:39:44;;;;;;;10.40;8.30;;;;;;;2.52;100.00;98393.50;105206;1271;73346;-71
2022/01/20 07:42:10;;;;;;;10.70;8.20;;;;;;;2.56;100.00;98395.08;105194;1271;62210;-72
2022/01/20 07:44:37;;;;;;;9.20;7.70;;;;;;;2.58;100.00;98404.27;105251;1271;62138;-69
2022/01/20 07:47:04;;;;;;;9.50;7.60;;;;;;;2.57;100.00;98407.81;105245;1271;62105;-73
2022/01/20 07:49:30;;;;;;;9.60;8.00;;;;;;;2.57;100.00;98422.20;105271;1271;69982;-73
2022/01/20 07:51:57;;;;;;;11.10;9.20;;;;;;;2.54;100.00;98428.27;105150;1271;73408;-72
2022/01/20 07:54:23;;;;;;;17.00;11.40;;;;;;;2.50;100.00;98437.94;105153;1271;62211;-74
2022/01/20 07:56:50;;;;;;;16.30;11.50;;;;;;;2.46;100.00;98450.74;105239;1271;62133;-73
2022/01/20 07:59:16;;;;;;;14.20;11.20;;;;;;;2.40;100.00;98471.87;105224;1271;77165;-73
2022/01/20 08:01:43;;;;;;;12.40;10.00;;;;;;;2.29;100.00;98471.42;105218;1271;68645;-73
2022/01/20 08:04:10;;;;;;;15.40;9.70;;;;;;;2.14;100.00;98453.81;105183;1271;74411;-74
2022/01/20 08:06:37;;;;;;;13.30;10.30;;;;;;;2.06;100.00;98445.21;105238;1271;61990;-72
2022/01/20 08:09:03;;;;;;;15.10;11.90;;;;;;;2.01;100.00;98452.63;105209;1271;62098;-73
2022/01/20 08:11:30;;;;;;;15.90;12.20;;;;;;;1.97;100.00;98452.06;104972;1271;76232;-74
2022/01/20 08:13:57;;;;;;;17.10;12.80;;;;;;;1.97;100.00;98448.56;105256;1271;69100;-73
2022/01/20 08:16:23;;;;;;;15.30;12.30;;;;;;;1.99;100.00;98448.83;105223;1271;62182;-73
2022/01/20 08:18:53;;;;;;;16.50;13.10;;;;;;;2.01;100.00;98453.86;105189;1271;62069;-73
2022/01/20 08:21:20;;;;;;;16.00;11.70;;;;;;;2.01;100.00;98458.04;105223;1271;62182;-71
2022/01/20 08:23:47;;;;;;;15.00;11.30;;;;;;;2.02;100.00;98456.64;104970;1272;76824;-72
2022/01/20 08:26:13;;;;;;;17.40;12.30;;;;;;;2.03;100.00;98465.00;105229;1271;69370;-73
2022/01/20 08:28:40;;;;;;;16.70;12.20;;;;;;;2.04;100.00;98458.09;105250;1271;74718;-75
2022/01/20 08:31:06;;;;;;;14.50;11.20;;;;;;;2.00;100.00;98463.34;104772;1271;62201;-73
2022/01/20 08:33:33;;;;;;;17.60;12.20;;;;;;;1.96;100.00;98466.12;105207;1271;63772;-73
2022/01/20 08:36:00;;;;;;;15.60;11.80;;;;;;;1.92;100.00;98463.50;104953;1271;76414;-72
2022/01/20 08:38:26;;;;;;;14.60;11.80;;;;;;;1.90;100.00;98459.55;105216;1271;69175;-74
2022/01/20 08:40:53;;;;;;;18.10;13.80;;;;;;;1.87;100.00;98450.38;104944;1271;74469;-75
2022/01/20 08:43:19;;;;;;;16.40;12.20;;;;;;;1.83;100.00;98443.55;104986;1273;62198;-73
2022/01/20 08:45:47;;;;;;;17.40;11.80;;;;;;;1.82;100.00;98434.98;105051;1271;62148;-73
2022/01/20 08:48:14;;;;;;;14.10;11.50;;;;;;;1.86;100.00;98433.77;105166;1271;76014;-73
2022/01/20 08:50:42;;;;;;;17.90;12.10;;;;;;;1.93;100.00;98431.05;105132;1271;69336;-72
2022/01/20 08:53:10;;;;;;;16.30;11.90;;;;;;;1.98;100.00;98423.30;105223;1271;74472;-73
2022/01/20 08:55:37;;;;;;;15.80;11.10;;;;;;;2.08;100.00;98415.87;105243;1271;62090;-74
2022/01/20 08:58:05;;;;;;;17.00;11.30;;;;;;;2.23;100.00;98414.20;105152;1271;62071;-74
2022/01/20 09:00:34;;;;;;;14.00;10.90;;;;;;;2.29;100.00;98410.80;105231;1271;76253;-74
2022/01/20 09:03:01;;;;;;;13.90;10.00;;;;;;;2.32;100.00;98401.55;105448;1271;69299;-73
2022/01/20 09:05:28;;;;;;;11.80;9.90;;;;;;;2.37;100.00;98398.19;105213;1271;74392;-71
2022/01/20 09:07:55;;;;;;;16.10;11.60;;;;;;;2.49;100.00;98388.19;105177;1271;62091;-73
2022/01/20 09:10:22;;;;;;;16.00;11.30;;;;;;;2.75;100.00;98387.73;105227;1271;61983;-73
2022/01/20 09:15:36;;;;;;;13.20;11.10;;;;;;;3.07;100.00;98376.10;105194;1271;69132;-72
2022/01/20 09:18:08;;;;;;;12.20;9.70;;;;;;;3.15;100.00;98381.33;105187;1271;72867;-74
2022/01/20 09:20:37;;;;;;;10.90;9.10;;;;;;;3.17;100.00;98376.67;105189;1271;62194;-72
2022/01/20 09:23:05;;;;;;;11.80;9.10;;;;;;;3.14;100.00;98369.81;105212;1271;61986;-72
2022/01/20 09:25:32;;;;;;;12.40;9.70;;;;;;;3.14;100.00;98363.84;105026;1271;75751;-72
2022/01/20 09:28:00;;;;;;;11.80;8.60;;;;;;;3.11;100.00;98365.89;105247;1271;70318;-73
2022/01/20 09:30:29;;;;;;;9.70;8.40;;;;;;;3.14;100.00;98368.56;105191;1271;74438;-74
2022/01/20 09:33:12;;;;;;;14.10;8.90;;;;;;;3.18;100.00;98350.14;105239;1271;62105;-75
2022/01/20 09:35:40;;;;;;;11.10;8.80;;;;;;;3.20;100.00;98347.23;105158;1271;62090;-75
2022/01/20 09:38:08;;;;;;;11.10;8.50;;;;;;;3.23;100.00;98344.30;105234;1271;76108;-72
2022/01/20 09:40:36;;;;;;;9.60;7.20;;;;;;;3.26;100.00;98341.84;105179;1271;69143;-73
2022/01/20 09:43:05;;;;;;;9.50;6.70;;;;;;;3.27;100.00;98335.83;105218;1271;74736;-72
2022/01/20 09:45:33;;;;;;;9.20;7.00;;;;;;;3.29;100.00;98335.75;105298;1271;62062;-73
2022/01/20 09:48:01;;;;;;;8.90;6.50;;;;;;;3.33;99.57;98339.75;105252;1271;61969;-74
2022/01/20 09:50:29;;;;;;;8.60;6.00;;;;;;;3.38;99.35;98346.89;105394;1271;76106;-72
2022/01/20 09:52:59;;;;;;;10.50;6.10;;;;;;;3.45;99.16;98332.14;104985;1274;69553;-72
2022/01/20 09:55:26;;;;;;;8.80;5.40;;;;;;;3.58;98.71;98331.51;105007;1271;72687;-71
2022/01/20 09:57:53;;;;;;;8.50;5.00;;;;;;;3.72;97.96;98330.14;105247;1271;62192;-72
2022/01/20 10:00:21;;;;;;;6.30;4.90;;;;;;;3.82;96.60;98322.08;105127;1271;62195;-72
2022/01/20 10:03:13;;;;;;;7.10;4.60;;;;;;;3.84;96.68;98315.08;105308;1271;76275;-73
2022/01/20 10:05:43;;;;;;;7.40;4.70;;;;;;;3.85;96.46;98308.02;104584;1278;70573;-73
2022/01/20 10:08:14;;;;;;;6.80;4.80;;;;;;;3.87;96.11;98314.62;104595;1280;71495;-71
2022/01/20 10:10:45;;;;;;;6.10;4.10;;;;;;;3.81;95.29;98312.31;104456;1280;62176;-72
2022/01/20 10:13:14;;;;;;;10.50;5.20;;;;;;;3.72;95.33;98303.23;104769;1278;62190;-72
2022/01/20 10:15:41;;;;;;;9.30;5.30;;;;;;;3.63;94.90;98297.89;104821;1277;77186;-72
2022/01/20 10:18:15;;;;;;;10.00;6.40;;;;;;;3.49;94.01;98295.58;104762;1278;70177;-72
2022/01/20 10:20:53;;;;;;;7.90;4.50;;;;;;;3.38;93.53;98278.41;104792;1280;71598;-71
2022/01/20 10:23:47;;;;;;;7.70;4.40;;;;;;;3.28;93.59;98268.73;104790;1278;62159;-72
2022/01/20 10:26:24;;;;;;;10.60;5.80;;;;;;;3.19;93.64;98262.14;104289;1284;62226;-73
2022/01/20 10:28:55;;;;;;;8.40;4.90;;;;;;;3.15;93.91;98261.62;104037;1286;76733;-72
2022/01/20 10:31:42;;;;;;;9.50;4.10;;;;;;;3.09;93.03;98270.20;104307;1284;69090;-73
2022/01/20 10:34:30;;;;;;;7.70;4.80;;;;;;;3.02;93.43;98269.80;104201;1284;73544;-73
2022/01/20 10:37:01;;;;;;;5.90;3.70;;;;;;;2.97;92.67;98260.25;104273;1284;62225;-72
2022/01/20 10:39:32;;;;;;;6.30;3.00;;;;;;;2.93;91.87;98245.30;105128;1284;62072;-73
2022/01/20 10:42:05;;;;;;;8.20;3.10;;;;;;;2.92;91.78;98248.37;104923;1284;75598;-72
2022/01/20 10:44:50;;;;;;;5.90;2.60;;;;;;;2.94;91.80;98237.58;104827;1278;69193;-73
2022/01/20 10:47:17;;;;;;;5.40;2.40;;;;;;;2.95;90.85;98222.43;104784;1280;74213;-72
2022/01/20 10:49:45;;;;;;;6.20;3.00;;;;;;;2.97;90.95;98226.88;105074;1277;62040;-72
2022/01/20 10:52:14;;;;;;;9.00;4.00;;;;;;;2.98;91.92;98226.80;105059;1279;62164;-72
2022/01/20 10:54:47;;;;;;;7.90;2.70;;;;;;;3.04;91.20;98220.77;104782;1280;76938;-74
2022/01/20 10:57:16;;;;;;;8.40;2.70;;;;;;;3.10;91.07;98210.97;104964;1278;69304;-73
2022/01/20 10:59:54;;;;;;;11.10;2.70;;;;;;;3.16;89.63;98201.05;104983;1278;74032;-71
2022/01/20 11:02:23;;;;;;;6.80;2.60;;;;;;;3.24;88.19;98209.94;105008;1280;62395;-75
2022/01/20 11:04:51;;;;;;;6.00;2.00;;;;;;;3.27;86.29;98225.94;105619;1271;62125;-73
2022/01/20 11:07:19;;;;;;;8.50;3.00;;;;;;;3.21;86.40;98233.44;105903;1272;76093;-73
2022/01/20 11:09:50;;;;;;;9.50;2.50;;;;;;;3.10;86.24;98248.57;105770;1271;69266;-73
2022/01/20 11:12:18;;;;;;;7.40;2.70;;;;;;;2.94;86.33;98269.81;105805;1271;72374;-74
2022/01/20 11:14:47;;;;;;;5.40;2.20;;;;;;;2.77;86.99;98340.08;108304;1271;62203;-73
2022/01/20 11:17:24;;;;;;;2.40;0.80;;;;;;;2.28;95.28;98374.88;107200;1270;62028;-71
2022/01/20 11:19:52;;;;;;;7.70;1.20;;;;;;;1.33;99.94;98399.63;106512;1271;76219;-73
2022/01/20 11:22:20;;;;;;;3.80;1.60;;;;;;;0.50;100.00;98401.88;105288;1271;69393;-73
2022/01/20 11:24:58;;;;;;;2.30;1.20;;;;;;;0.03;100.00;98391.46;104986;1271;1002608;-73
2022/01/20 11:28:12;;;;;;;1.40;0.90;;;;;;;-0.29;100.00;98392.70;105353;1271;62975;-74
2022/01/20 11:30:52;;;;;;;6.40;1.80;;;;;;;-0.53;100.00;98403.79;104610;1279;62101;-73
2022/01/20 11:33:20;;;;;;;;;;;;;;;-0.61;100.00;98404.39;104562;1280;76214;-73
2022/01/20 11:35:50;;;;;;;3.40;1.50;;;;;;;-0.71;100.00;98390.56;104582;1279;70938;-73
2022/01/20 11:38:20;;;;;;;3.50;1.50;;;;;;;-0.71;100.00;98389.52;104568;1279;72739;-73
2022/01/20 11:40:50;;;;;;;3.00;1.50;;;;;;;-0.67;100.00;98390.95;102383;1280;1003299;-73
2022/01/20 11:43:18;;;;;;;3.00;1.70;;;;;;;-0.58;100.00;98384.75;104582;1280;62332;-74
2022/01/20 11:45:51;;;;;;;3.80;2.10;;;;;;;-0.49;100.00;98382.91;104855;1279;76742;-74
2022/01/20 11:48:23;;;;;;;6.40;2.30;;;;;;;-0.42;100.00;98374.65;104588;1279;69202;-72
2022/01/20 11:51:05;;;;;;;5.30;2.70;;;;;;;-0.37;100.00;98366.95;104647;1280;72102;-73
2022/01/20 11:53:40;;;;;;;6.50;2.10;;;;;;;-0.26;100.00;98365.89;104614;1279;62245;-73
2022/01/20 11:56:09;;;;;;;6.00;2.20;;;;;;;-0.14;100.00;98365.70;104511;1279;62097;-72
2022/01/20 11:58:35;;;;;;;5.50;2.50;;;;;;;-0.08;100.00;98365.98;104899;1280;76973;-72
2022/01/20 12:01:06;;;;;;;5.40;2.90;;;;;;;0.02;100.00;98357.62;104587;1280;68559;-72
2022/01/20 12:03:35;;;;;;;4.80;1.90;;;;;;;0.06;100.00;98369.21;104525;1279;72639;-72
2022/01/20 12:06:12;;;;;;;5.90;2.40;;;;;;;0.02;100.00;98370.90;104486;1280;62102;-72
2022/01/20 12:09:12;;;;;;;9.70;2.90;;;;;;;-0.06;100.00;98374.13;105234;1271;62161;-72
2022/01/20 12:11:46;;;;;;;5.50;2.60;;;;;;;-0.12;100.00;98372.94;104634;1277;76134;-72
2022/01/20 12:14:24;;;;;;;2.90;1.90;;;;;;;-0.11;100.00;98371.67;104749;1277;69191;-73
2022/01/20 12:17:00;;;;;;;4.90;2.80;;;;;;;-0.10;100.00;98376.20;104658;1278;74239;-74
2022/01/20 12:19:27;;;;;;;5.60;3.00;;;;;;;-0.11;100.00;98375.36;104528;1280;62273;-72
2022/01/20 12:21:53;;;;;;;7.50;4.20;;;;;;;-0.13;100.00;98376.66;104690;1278;62202;-74
2022/01/20 12:24:20;;;;;;;7.80;3.70;;;;;;;-0.15;100.00;98373.58;104721;1278;62127;-73
2022/01/20 12:26:47;;;;;;;6.10;4.10;;;;;;;-0.15;100.00;98379.86;104621;1278;69197;-74